KPIT/PIT METAR and TAF weather

Enter ICAO airport designator
Station Type Date Time Source
KPIT METAR 2022/12/04 04:11 UTC NOAA

KPIT 040411Z 29009KT 10SM BKN029 M01/M06 A3033 RMK AO2 T10061056


Station Type Date Time Source
KPIT Decoded METAR 2022/12/04 04:11 UTC NOAA

GREATER PITTSBURGH INTERNATIONAL , PA, United States (KPIT) 40-29N 80-14W 357M
Dec 03, 2022 - 11:11 PM EST / 2022.12.04 0411 UTC
Wind: from the WNW (290 degrees) at 10 MPH (9 KT):0
Visibility: 10 mile(s):0
Sky conditions: mostly cloudy
Temperature: 30.9 F (-0.6 C)
Windchill: 23 F (-5 C):1
Dew Point: 21.9 F (-5.6 C)
Relative Humidity: 68%
Pressure (altimeter): 30.33 in. Hg (1027 hPa)
ob: KPIT 040411Z 29009KT 10SM BKN029 M01/M06 A3033 RMK AO2 T10061056
cycle: 4

Station Type Date Time Source
KPIT TAF 2022/12/04 04:30 UTC NOAA

TAF
AMD KPIT 040429Z 0404/0506 27006KT P6SM OVC025
FM040600 25006KT P6SM SKC

Example: see airport list